createdAt,value
2022-07-27T00:00:11.093Z,100360.75
2022-07-27T00:02:41.767Z,100357.75
2022-07-27T00:05:09.883Z,100367.47
2022-07-27T00:07:38.060Z,100365.06
2022-07-27T00:10:06.624Z,100375.78
2022-07-27T00:12:35.221Z,100367.19
2022-07-27T00:15:05.080Z,100365.47
2022-07-27T00:17:33.225Z,100366.47
2022-07-27T00:20:06.530Z,100357.91
2022-07-27T00:22:34.941Z,100372.78
2022-07-27T00:25:04.396Z,100372.63
2022-07-27T00:27:34.843Z,100368.63
2022-07-27T00:30:02.904Z,100362.03
2022-07-27T00:32:31.554Z,100362.19
2022-07-27T00:34:59.675Z,100361.88
2022-07-27T00:37:29.938Z,100375.59
2022-07-27T00:39:57.965Z,100385.19
2022-07-27T00:42:28.892Z,100389.63
2022-07-27T00:44:57.652Z,100385.34
2022-07-27T00:47:26.122Z,100389.06
2022-07-27T00:49:54.223Z,100371.47
2022-07-27T00:52:23.401Z,100381.19
2022-07-27T00:54:52.635Z,100382.19
2022-07-27T00:57:20.806Z,100384.75
2022-07-27T00:59:48.600Z,100378.75
2022-07-27T01:02:17.282Z,100375.91
2022-07-27T01:04:48.057Z,100374.91
2022-07-27T01:07:16.740Z,100372.19
2022-07-27T01:09:58.385Z,100382.78
2022-07-27T01:12:32.094Z,100374.91
2022-07-27T01:15:00.379Z,100361.31
2022-07-27T01:17:32.260Z,100356.56
2022-07-27T01:20:00.212Z,100382.91
2022-07-27T01:22:28.245Z,100368.88
2022-07-27T01:24:56.337Z,100373.03
2022-07-27T01:27:24.279Z,100371.31
2022-07-27T01:29:52.008Z,100366.03
2022-07-27T01:32:20.986Z,100367.75
2022-07-27T01:34:49.064Z,100358.88
2022-07-27T01:37:17.064Z,100360.03
2022-07-27T01:39:45.008Z,100360.03
2022-07-27T01:42:12.839Z,100359.28
2022-07-27T01:44:40.598Z,100361.56
2022-07-27T01:47:14.779Z,100368.84
2022-07-27T01:49:42.727Z,100358.28
2022-07-27T01:52:10.623Z,100361.72
2022-07-27T01:54:38.442Z,100344.81
2022-07-27T01:57:06.175Z,100353.72
2022-07-27T01:59:34.036Z,100360.72
2022-07-27T02:02:01.915Z,100357.44
2022-07-27T02:04:29.705Z,100350.25
2022-07-27T02:06:57.406Z,100348.69
2022-07-27T02:09:25.939Z,100348.53
2022-07-27T02:12:12.546Z,100345.25
2022-07-27T02:14:40.461Z,100335.78
2022-07-27T02:17:08.282Z,100334.22
2022-07-27T02:19:37.869Z,100335.34
2022-07-27T02:22:05.773Z,100334.75
2022-07-27T02:24:33.838Z,100335.91
2022-07-27T02:27:01.673Z,100324.84
2022-07-27T02:29:30.582Z,100341.00
2022-07-27T02:31:58.351Z,100341.28
2022-07-27T02:34:26.228Z,100340.41
2022-07-27T02:36:53.930Z,100326.25
2022-07-27T02:39:21.679Z,100326.56
2022-07-27T02:41:49.465Z,100328.97
2022-07-27T02:44:18.424Z,100336.41
2022-07-27T02:46:46.420Z,100334.69
2022-07-27T02:49:14.697Z,100341.38
2022-07-27T02:51:42.814Z,100344.81
2022-07-27T02:54:10.940Z,100338.78
2022-07-27T02:56:38.639Z,100345.81
2022-07-27T02:59:06.325Z,100351.25
2022-07-27T03:01:34.299Z,100335.97
2022-07-27T03:04:02.195Z,100347.81
2022-07-27T03:06:29.996Z,100344.22
2022-07-27T03:08:57.755Z,100346.81
2022-07-27T03:11:25.454Z,100336.81
2022-07-27T03:13:53.474Z,100348.25
2022-07-27T03:16:21.384Z,100347.25
2022-07-27T03:18:49.855Z,100347.38
2022-07-27T03:21:18.001Z,100357.25
2022-07-27T03:23:45.977Z,100350.97
2022-07-27T03:26:13.783Z,100351.69
2022-07-27T03:28:41.745Z,100346.41
2022-07-27T03:31:09.896Z,100347.13
2022-07-27T03:33:38.082Z,100351.53
2022-07-27T03:36:06.161Z,100350.84
2022-07-27T03:38:33.937Z,100351.69
2022-07-27T03:41:02.389Z,100353.53
2022-07-27T03:43:30.324Z,100347.66
2022-07-27T03:45:58.141Z,100360.38
2022-07-27T03:48:27.224Z,100349.63
2022-07-27T03:50:55.443Z,100346.22
2022-07-27T03:53:23.392Z,100348.94
2022-07-27T03:55:51.686Z,100358.94
2022-07-27T03:58:23.139Z,100355.47
2022-07-27T04:00:51.015Z,100367.47
2022-07-27T04:03:18.941Z,100360.03
2022-07-27T04:05:46.632Z,100365.63
2022-07-27T04:08:14.338Z,100362.75
2022-07-27T04:10:42.464Z,100365.22
2022-07-27T04:13:12.668Z,100359.94
2022-07-27T04:15:41.851Z,100368.94
2022-07-27T04:18:09.686Z,100366.94
2022-07-27T04:20:37.426Z,100370.38
2022-07-27T04:23:05.445Z,100371.94
2022-07-27T04:25:33.365Z,100384.53
2022-07-27T04:28:01.076Z,100377.22
2022-07-27T04:30:28.917Z,100371.09
2022-07-27T04:32:56.683Z,100371.25
2022-07-27T04:35:26.701Z,100371.94
2022-07-27T04:37:59.142Z,100376.38
2022-07-27T04:40:33.499Z,100370.09
2022-07-27T04:43:04.230Z,100379.09
2022-07-27T04:45:32.719Z,100390.94
2022-07-27T04:48:05.579Z,100385.97
2022-07-27T04:50:42.992Z,100382.56
2022-07-27T04:53:12.129Z,100386.53
2022-07-27T04:55:47.226Z,100393.13
2022-07-27T04:58:15.965Z,100390.69
2022-07-27T05:00:44.150Z,100390.53
2022-07-27T05:03:11.989Z,100394.84
2022-07-27T05:05:40.041Z,100393.00
2022-07-27T05:08:18.996Z,100393.72
2022-07-27T05:10:47.448Z,100393.56
2022-07-27T05:13:15.248Z,100385.56
2022-07-27T05:15:54.212Z,100394.31
2022-07-27T05:18:25.450Z,100395.16
2022-07-27T05:20:53.649Z,100384.19
2022-07-27T05:23:21.565Z,100390.22
2022-07-27T05:25:49.509Z,100386.50
2022-07-27T05:28:18.021Z,100398.09
2022-07-27T05:30:46.125Z,100400.94
2022-07-27T05:33:13.931Z,100410.06
2022-07-27T05:35:41.833Z,100410.78
2022-07-27T05:38:09.811Z,100412.38
2022-07-27T05:40:37.997Z,100422.97
2022-07-27T05:43:05.814Z,100421.38
2022-07-27T05:45:33.781Z,100431.25
2022-07-27T05:48:01.870Z,100426.81
2022-07-27T05:50:29.784Z,100417.22
2022-07-27T05:53:00.554Z,100420.06
2022-07-27T05:55:28.499Z,100414.50
2022-07-27T05:57:56.268Z,100426.97
2022-07-27T06:00:24.092Z,100434.50
2022-07-27T06:02:51.905Z,100425.50
2022-07-27T06:05:19.643Z,100434.66
2022-07-27T06:07:59.687Z,100433.41
2022-07-27T06:10:33.247Z,100441.13
2022-07-27T06:13:04.499Z,100442.09
2022-07-27T06:15:32.340Z,100443.13
2022-07-27T06:18:00.814Z,100448.69
2022-07-27T06:20:29.448Z,100441.88
2022-07-27T06:23:00.237Z,100434.34
2022-07-27T06:25:33.992Z,100446.63
2022-07-27T06:28:05.136Z,100439.06
2022-07-27T06:30:33.410Z,100448.00
2022-07-27T06:33:06.043Z,100454.94
2022-07-27T06:35:37.052Z,100459.13
2022-07-27T06:38:08.492Z,100463.72
2022-07-27T06:40:36.478Z,100453.00
2022-07-27T06:43:04.519Z,100456.44
2022-07-27T06:45:32.352Z,100458.59
2022-07-27T06:48:00.544Z,100447.13
2022-07-27T06:50:28.345Z,100448.88
2022-07-27T06:52:56.139Z,100450.44
2022-07-27T06:55:24.817Z,100452.03
2022-07-27T06:57:52.590Z,100448.56
2022-07-27T07:00:20.721Z,100452.28
2022-07-27T07:03:02.816Z,100449.81
2022-07-27T07:05:32.942Z,100451.56
2022-07-27T07:08:11.453Z,100455.84
2022-07-27T07:10:41.632Z,100449.09
2022-07-27T07:13:10.185Z,100444.09
2022-07-27T07:15:40.608Z,100449.78
2022-07-27T07:18:10.447Z,100458.38
2022-07-27T07:20:39.406Z,100469.16
2022-07-27T07:23:08.348Z,100471.44
2022-07-27T07:25:37.089Z,100467.53
2022-07-27T07:28:07.168Z,100470.53
2022-07-27T07:30:36.017Z,100467.13
2022-07-27T07:33:04.558Z,100474.28
2022-07-27T07:35:32.724Z,100474.44
2022-07-27T07:38:00.616Z,100467.28
2022-07-27T07:40:45.111Z,100464.84
2022-07-27T07:43:13.991Z,100466.44
2022-07-27T07:45:50.062Z,100461.69
2022-07-27T07:48:22.003Z,100467.69
2022-07-27T07:50:53.955Z,100469.25
2022-07-27T07:53:24.063Z,100456.66
2022-07-27T07:55:53.725Z,100464.09
2022-07-27T07:58:21.574Z,100457.47
2022-07-27T08:00:49.487Z,100461.63
2022-07-27T08:03:18.573Z,100460.31
2022-07-27T08:05:46.833Z,100456.56
2022-07-27T08:08:14.920Z,100459.00
2022-07-27T08:10:42.785Z,100468.56
2022-07-27T08:13:10.694Z,100466.59
2022-07-27T08:15:38.597Z,100465.81
2022-07-27T08:18:07.339Z,100465.06
2022-07-27T08:20:35.536Z,100473.22
2022-07-27T08:23:04.973Z,100468.34
2022-07-27T08:25:33.487Z,100469.03
2022-07-27T08:28:02.803Z,100469.28
2022-07-27T08:30:32.883Z,100461.03
2022-07-27T08:33:03.650Z,100467.44
2022-07-27T08:35:34.341Z,100471.41
2022-07-27T08:38:05.776Z,100457.25
2022-07-27T08:40:44.435Z,100467.84
2022-07-27T08:43:24.820Z,100467.84
2022-07-27T08:45:59.530Z,100464.97
2022-07-27T08:48:31.221Z,100458.19
2022-07-27T08:50:59.240Z,100456.09
2022-07-27T08:53:41.917Z,100460.03
2022-07-27T08:56:18.865Z,100460.63
2022-07-27T08:58:47.122Z,100468.56
2022-07-27T09:01:15.197Z,100472.38
2022-07-27T09:03:42.996Z,100462.03
2022-07-27T09:06:11.273Z,100463.38
2022-07-27T09:08:41.747Z,100465.81
2022-07-27T09:11:15.460Z,100469.09
2022-07-27T09:13:43.446Z,100462.78
2022-07-27T09:16:20.396Z,100470.63
2022-07-27T09:18:58.110Z,100466.44
2022-07-27T09:21:26.196Z,100446.91
2022-07-27T09:24:45.609Z,100452.38
2022-07-27T09:27:05.646Z,100460.25
2022-07-27T09:29:35.327Z,100458.13
2022-07-27T09:32:15.667Z,100456.84
2022-07-27T09:34:44.171Z,100460.28
2022-07-27T09:37:22.839Z,100462.22
2022-07-27T09:39:50.829Z,100468.72
2022-07-27T09:43:03.529Z,100460.03
2022-07-27T09:45:32.490Z,100460.28
2022-07-27T09:48:14.945Z,100460.78
2022-07-27T09:51:05.452Z,100466.31
2022-07-27T09:53:49.174Z,100463.91
2022-07-27T09:56:18.151Z,100461.03
2022-07-27T09:59:00.916Z,100454.91
2022-07-27T10:01:35.604Z,100464.31
2022-07-27T10:04:07.205Z,100461.53
2022-07-27T10:07:00.517Z,100452.84
2022-07-27T10:09:24.193Z,100459.16
2022-07-27T10:11:52.476Z,100452.47
2022-07-27T10:14:20.329Z,100460.69
2022-07-27T10:16:50.570Z,100462.75
2022-07-27T10:19:43.813Z,100457.28
2022-07-27T10:22:11.685Z,100452.44
2022-07-27T10:24:39.597Z,100462.56
2022-07-27T10:27:27.849Z,100457.47
2022-07-27T10:29:57.675Z,100456.25
2022-07-27T10:32:31.501Z,100463.81
2022-07-27T10:35:01.520Z,100466.75
2022-07-27T10:37:32.574Z,100452.44
2022-07-27T10:40:37.345Z,100464.13
2022-07-27T10:43:20.705Z,100453.97
2022-07-27T10:46:01.381Z,100463.06
2022-07-27T10:48:47.737Z,100468.63
2022-07-27T10:51:33.710Z,100446.97
2022-07-27T10:54:35.386Z,100452.00
2022-07-27T10:57:06.800Z,100460.94
2022-07-27T11:00:13.524Z,100451.53
2022-07-27T11:02:42.995Z,100452.38
2022-07-27T11:05:37.853Z,100445.19
2022-07-27T11:10:49.076Z,100458.69
2022-07-27T11:13:20.209Z,100450.50
2022-07-27T11:16:23.281Z,100447.91
2022-07-27T11:19:10.655Z,100451.34
2022-07-27T11:21:39.695Z,100449.75
2022-07-27T11:24:14.727Z,100441.88
2022-07-27T11:26:52.036Z,100453.84
2022-07-27T11:29:24.118Z,100441.00
2022-07-27T11:31:57.498Z,100435.19
2022-07-27T11:34:36.793Z,100435.19
2022-07-27T11:37:19.157Z,100433.50
2022-07-27T11:40:00.499Z,100431.59
2022-07-27T11:42:39.715Z,100425.78
2022-07-27T11:45:08.871Z,100436.19
2022-07-27T11:47:37.014Z,100441.00
2022-07-27T11:50:11.336Z,100421.50
2022-07-27T11:52:39.626Z,100425.25
2022-07-27T11:55:07.971Z,100428.00
2022-07-27T11:57:36.346Z,100426.59
2022-07-27T12:00:06.971Z,100416.34
2022-07-27T12:02:50.201Z,100421.16
2022-07-27T12:05:18.908Z,100425.28
2022-07-27T12:07:47.343Z,100420.16
2022-07-27T12:10:15.120Z,100418.97
2022-07-27T12:12:49.416Z,100421.03
2022-07-27T12:18:08.626Z,100413.84
2022-07-27T12:20:37.406Z,100422.94
2022-07-27T12:23:08.548Z,100412.50
2022-07-27T12:25:38.935Z,100407.75
2022-07-27T12:28:13.338Z,100408.41
2022-07-27T12:30:48.415Z,100410.13
2022-07-27T12:33:37.760Z,100414.91
2022-07-27T12:36:09.830Z,100410.63
2022-07-27T12:38:43.512Z,100411.84
2022-07-27T12:41:22.864Z,100400.53
2022-07-27T12:44:10.408Z,100411.69
2022-07-27T12:47:27.325Z,100402.25
2022-07-27T12:50:18.789Z,100414.56
2022-07-27T12:52:51.294Z,100409.28
2022-07-27T12:55:21.506Z,100409.09
2022-07-27T12:57:56.100Z,100411.69
2022-07-27T13:00:47.636Z,100397.63
2022-07-27T13:03:16.572Z,100403.47
2022-07-27T13:05:44.762Z,100405.50
2022-07-27T13:08:13.379Z,100403.63
2022-07-27T13:10:44.938Z,100398.16
2022-07-27T13:13:13.515Z,100395.94
2022-07-27T13:15:41.642Z,100396.13
2022-07-27T13:18:09.617Z,100385.31
2022-07-27T13:20:37.498Z,100393.53
2022-07-27T13:23:08.731Z,100385.16
2022-07-27T13:25:42.778Z,100370.06
2022-07-27T13:28:12.185Z,100363.59
2022-07-27T13:30:40.488Z,100360.69
2022-07-27T13:33:09.185Z,100367.03
2022-07-27T13:35:37.429Z,100360.84
2022-07-27T13:38:05.440Z,100364.44
2022-07-27T13:40:33.641Z,100364.59
2022-07-27T13:43:01.664Z,100361.53
2022-07-27T13:45:31.135Z,100359.13
2022-07-27T13:48:12.149Z,100374.69
2022-07-27T13:50:40.294Z,100365.44
2022-07-27T13:53:09.150Z,100360.28
2022-07-27T13:55:37.092Z,100369.16
2022-07-27T13:58:05.164Z,100366.06
2022-07-27T14:00:33.067Z,100371.34
2022-07-27T14:03:01.657Z,100359.00
2022-07-27T14:05:30.517Z,100356.94
2022-07-27T14:08:00.618Z,100342.56
2022-07-27T14:10:31.903Z,100353.03
2022-07-27T14:13:08.229Z,100356.75
2022-07-27T14:15:53.001Z,100348.72
2022-07-27T14:18:29.156Z,100347.50
2022-07-27T14:21:00.848Z,100341.13
2022-07-27T14:23:29.433Z,100347.28
2022-07-27T14:25:58.810Z,100347.97
2022-07-27T14:28:28.800Z,100345.34
2022-07-27T14:30:57.112Z,100347.38
2022-07-27T14:33:29.955Z,100343.44
2022-07-27T14:36:07.699Z,100348.53
2022-07-27T14:38:37.779Z,100348.19
2022-07-27T14:41:06.136Z,100347.00
2022-07-27T14:43:34.231Z,100344.41
2022-07-27T14:46:01.923Z,100346.69
2022-07-27T14:49:03.331Z,100347.69
2022-07-27T14:51:17.505Z,100351.81
2022-07-27T14:53:46.114Z,100348.91
2022-07-27T14:56:14.156Z,100352.69
2022-07-27T14:58:42.171Z,100348.72
2022-07-27T15:01:10.005Z,100345.25
2022-07-27T15:03:37.711Z,100344.38
2022-07-27T15:06:05.350Z,100332.69
2022-07-27T15:08:33.247Z,100335.94
2022-07-27T15:11:01.024Z,100335.38
2022-07-27T15:13:28.759Z,100331.41
2022-07-27T15:15:57.947Z,100326.97
2022-07-27T15:18:25.873Z,100334.84
2022-07-27T15:20:53.508Z,100320.06
2022-07-27T15:23:22.252Z,100321.28
2022-07-27T15:25:49.932Z,100324.53
2022-07-27T15:28:17.633Z,100320.94
2022-07-27T15:30:45.297Z,100315.78
2022-07-27T15:33:12.955Z,100311.53
2022-07-27T15:35:40.820Z,100313.25
2022-07-27T15:38:08.588Z,100318.53
2022-07-27T15:40:41.245Z,100314.09
2022-07-27T15:43:15.878Z,100303.66
2022-07-27T15:45:50.588Z,100303.19
2022-07-27T15:48:20.191Z,100300.28
2022-07-27T15:50:52.512Z,100309.91
2022-07-27T15:53:22.065Z,100296.03
2022-07-27T15:55:52.423Z,100305.78
2022-07-27T15:58:21.524Z,100296.03
2022-07-27T16:00:52.830Z,100302.38
2022-07-27T16:03:25.623Z,100300.81
2022-07-27T16:05:54.237Z,100306.84
2022-07-27T16:08:21.948Z,100294.38
2022-07-27T16:10:50.245Z,100297.31
2022-07-27T16:13:18.071Z,100287.75
2022-07-27T16:16:04.906Z,100287.25
2022-07-27T16:18:38.330Z,100285.78
2022-07-27T16:21:07.619Z,100286.13
2022-07-27T16:23:35.808Z,100287.50
2022-07-27T16:26:05.935Z,100278.63
2022-07-27T16:28:38.918Z,100277.09
2022-07-27T16:31:10.204Z,100282.94
2022-07-27T16:33:38.539Z,100276.09
2022-07-27T16:36:08.246Z,100274.72
2022-07-27T16:38:39.322Z,100278.84
2022-07-27T16:41:22.411Z,100273.91
2022-07-27T16:43:50.483Z,100273.25
2022-07-27T16:46:18.482Z,100270.84
2022-07-27T16:48:46.439Z,100279.78
2022-07-27T16:51:15.897Z,100272.09
2022-07-27T16:53:47.858Z,100278.81
2022-07-27T16:56:16.400Z,100265.25
2022-07-27T16:58:44.935Z,100278.28
2022-07-27T17:01:15.068Z,100269.56
2022-07-27T17:04:10.127Z,100273.03
2022-07-27T17:06:37.975Z,100278.00
2022-07-27T17:09:06.033Z,100277.50
2022-07-27T17:11:37.291Z,100270.97
2022-07-27T17:14:07.010Z,100277.75
2022-07-27T17:16:35.785Z,100271.56
2022-07-27T17:19:03.920Z,100270.34
2022-07-27T17:21:32.201Z,100269.34
2022-07-27T17:23:59.979Z,100272.59
2022-07-27T17:26:27.910Z,100274.81
2022-07-27T17:28:55.763Z,100265.25
2022-07-27T17:31:56.022Z,100265.56
2022-07-27T17:35:22.861Z,100271.09
2022-07-27T17:38:06.954Z,100269.91
2022-07-27T17:40:37.895Z,100266.13
2022-07-27T17:43:05.905Z,100261.69
2022-07-27T17:45:33.776Z,100264.44
2022-07-27T17:48:01.630Z,100266.59
2022-07-27T17:50:29.568Z,100259.94
2022-07-27T17:52:59.180Z,100266.63
2022-07-27T17:55:27.488Z,100262.53
2022-07-27T17:57:57.160Z,100259.28
2022-07-27T18:00:25.482Z,100271.41
2022-07-27T18:02:53.691Z,100272.06
2022-07-27T18:05:21.726Z,100285.25
2022-07-27T18:07:51.894Z,100264.88
2022-07-27T18:10:20.661Z,100268.84
2022-07-27T18:12:48.958Z,100276.69
2022-07-27T18:15:35.673Z,100270.53
2022-07-27T18:18:04.613Z,100281.28
2022-07-27T18:20:32.994Z,100278.34
2022-07-27T18:23:00.897Z,100286.03
2022-07-27T18:25:29.232Z,100287.72
2022-07-27T18:27:57.011Z,100288.72
2022-07-27T18:30:25.017Z,100298.31
2022-07-27T18:32:52.875Z,100298.09
2022-07-27T18:35:20.885Z,100295.00
2022-07-27T18:37:48.863Z,100295.50
2022-07-27T18:40:16.798Z,100291.03
2022-07-27T18:42:45.956Z,100311.34
2022-07-27T18:45:13.729Z,100298.19
2022-07-27T18:47:41.597Z,100309.78
2022-07-27T18:50:17.411Z,100307.97
2022-07-27T18:52:45.420Z,100314.09
2022-07-27T18:55:14.828Z,100321.94
2022-07-27T18:57:42.567Z,100314.53
2022-07-27T19:00:11.111Z,100313.84
2022-07-27T19:02:39.534Z,100326.41
2022-07-27T19:05:10.397Z,100318.88
2022-07-27T19:07:42.135Z,100328.38
2022-07-27T19:10:10.534Z,100327.00
2022-07-27T19:12:38.434Z,100329.22
2022-07-27T19:15:07.786Z,100336.13
2022-07-27T19:17:35.693Z,100339.47
2022-07-27T19:20:04.591Z,100332.09
2022-07-27T19:22:32.537Z,100343.13
2022-07-27T19:25:00.790Z,100341.06
2022-07-27T19:27:28.626Z,100338.78
2022-07-27T19:29:56.688Z,100349.16
2022-07-27T19:32:25.237Z,100350.81
2022-07-27T19:34:53.132Z,100350.25
2022-07-27T19:37:26.624Z,100349.19
2022-07-27T19:40:02.677Z,100355.78
2022-07-27T19:42:39.373Z,100359.13
2022-07-27T19:45:08.448Z,100358.75
2022-07-27T19:47:36.343Z,100365.09
2022-07-27T19:50:06.493Z,100362.13
2022-07-27T19:52:34.340Z,100364.59
2022-07-27T19:55:02.382Z,100364.06
2022-07-27T19:57:30.211Z,100361.63
2022-07-27T19:59:58.257Z,100364.81
2022-07-27T20:02:26.089Z,100377.16
2022-07-27T20:04:54.124Z,100380.50
2022-07-27T20:07:22.814Z,100382.94
2022-07-27T20:09:50.826Z,100377.94
2022-07-27T20:12:18.630Z,100382.69
2022-07-27T20:14:46.653Z,100377.69
2022-07-27T20:17:14.646Z,100371.97
2022-07-27T20:19:42.965Z,100374.13
2022-07-27T20:22:11.019Z,100382.03
2022-07-27T20:24:38.939Z,100378.91
2022-07-27T20:27:06.782Z,100382.06
2022-07-27T20:29:34.815Z,100391.81
2022-07-27T20:32:02.945Z,100386.81
2022-07-27T20:34:30.763Z,100377.53
2022-07-27T20:37:00.375Z,100380.69
2022-07-27T20:39:28.602Z,100386.41
2022-07-27T20:41:56.530Z,100382.13
2022-07-27T20:44:24.479Z,100384.28
2022-07-27T20:46:52.447Z,100377.69
2022-07-27T20:49:20.507Z,100375.41
2022-07-27T20:51:48.425Z,100370.41
2022-07-27T20:54:16.166Z,100378.84
2022-07-27T20:56:44.122Z,100381.88
2022-07-27T20:59:16.695Z,100370.69
2022-07-27T21:01:45.147Z,100374.69
2022-07-27T21:04:13.155Z,100375.84
2022-07-27T21:06:41.523Z,100380.44
2022-07-27T21:09:09.454Z,100376.13
2022-07-27T21:11:37.476Z,100374.13
2022-07-27T21:14:05.421Z,100373.13
2022-07-27T21:16:33.356Z,100375.56
2022-07-27T21:19:01.341Z,100383.31
2022-07-27T21:21:29.122Z,100390.72
2022-07-27T21:24:17.035Z,100392.28
2022-07-27T21:26:48.678Z,100388.09
2022-07-27T21:29:18.018Z,100387.50
2022-07-27T21:31:48.359Z,100377.50
2022-07-27T21:34:19.417Z,100387.59
2022-07-27T21:36:48.003Z,100376.03
2022-07-27T21:39:18.026Z,100375.59
2022-07-27T21:41:46.274Z,100382.63
2022-07-27T21:44:14.589Z,100385.91
2022-07-27T21:46:43.164Z,100384.47
2022-07-27T21:49:13.173Z,100378.72
2022-07-27T21:51:41.239Z,100380.44
2022-07-27T21:54:08.940Z,100387.13
2022-07-27T21:56:41.358Z,100381.97
2022-07-27T21:59:10.297Z,100381.41
2022-07-27T22:01:38.150Z,100383.78
2022-07-27T22:04:06.339Z,100388.34
2022-07-27T22:06:34.352Z,100392.06
2022-07-27T22:09:02.206Z,100402.06
2022-07-27T22:11:30.328Z,100394.03
2022-07-27T22:13:58.309Z,100393.31
2022-07-27T22:16:26.364Z,100401.72
2022-07-27T22:18:54.765Z,100398.28
2022-07-27T22:21:22.901Z,100395.13
2022-07-27T22:23:50.762Z,100391.69
2022-07-27T22:26:18.590Z,100393.53
2022-07-27T22:28:46.366Z,100393.53
2022-07-27T22:31:21.313Z,100395.94
2022-07-27T22:33:51.499Z,100400.66
2022-07-27T22:36:19.302Z,100406.94
2022-07-27T22:38:47.094Z,100393.75
2022-07-27T22:41:15.211Z,100397.88
2022-07-27T22:43:43.226Z,100399.72
2022-07-27T22:46:11.321Z,100392.69
2022-07-27T22:48:39.251Z,100396.41
2022-07-27T22:51:07.724Z,100411.94
2022-07-27T22:53:38.447Z,100416.81
2022-07-27T22:56:07.085Z,100418.19
2022-07-27T22:58:35.155Z,100418.06
2022-07-27T23:01:03.316Z,100420.31
2022-07-27T23:03:31.105Z,100414.88
2022-07-27T23:05:58.842Z,100423.16
2022-07-27T23:08:26.698Z,100427.84
2022-07-27T23:10:54.421Z,100420.84
2022-07-27T23:13:25.075Z,100423.97
2022-07-27T23:16:01.619Z,100423.59
2022-07-27T23:18:29.517Z,100408.56
2022-07-27T23:20:57.539Z,100410.81
2022-07-27T23:23:26.024Z,100401.94
2022-07-27T23:25:55.787Z,100393.72
2022-07-27T23:28:24.537Z,100404.56
2022-07-27T23:30:52.380Z,100413.00
2022-07-27T23:33:20.110Z,100415.09
2022-07-27T23:35:48.010Z,100419.19
2022-07-27T23:38:15.839Z,100400.44
2022-07-27T23:40:43.707Z,100412.44
2022-07-27T23:43:11.519Z,100409.22
2022-07-27T23:45:39.513Z,100414.38
2022-07-27T23:48:07.353Z,100410.81
2022-07-27T23:50:36.753Z,100408.13
2022-07-27T23:53:04.765Z,100407.38
2022-07-27T23:55:37.118Z,100401.84
2022-07-27T23:58:05.421Z,100400.22
